sensor_id;sensor_type;location;lat;lon;timestamp;temperature;humidity
70300;HTU21D;57704;51.112;5.878;2023-08-17T00:01:48;22.49;63.21
70300;HTU21D;57704;51.112;5.878;2023-08-17T00:04:14;22.44;63.19
70300;HTU21D;57704;51.112;5.878;2023-08-17T00:06:40;22.41;63.22
70300;HTU21D;57704;51.112;5.878;2023-08-17T00:09:06;22.39;63.32
70300;HTU21D;57704;51.112;5.878;2023-08-17T00:11:35;22.36;63.39
70300;HTU21D;57704;51.112;5.878;2023-08-17T00:14:01;22.39;63.44
70300;HTU21D;57704;51.112;5.878;2023-08-17T00:16:28;22.44;63.24
70300;HTU21D;57704;51.112;5.878;2023-08-17T00:18:54;22.42;63.01
70300;HTU21D;57704;51.112;5.878;2023-08-17T00:21:20;22.32;63.15
70300;HTU21D;57704;51.112;5.878;2023-08-17T00:23:46;22.27;63.25
70300;HTU21D;57704;51.112;5.878;2023-08-17T00:26:11;22.24;63.31
70300;HTU21D;57704;51.112;5.878;2023-08-17T00:28:37;22.19;63.29
70300;HTU21D;57704;51.112;5.878;2023-08-17T00:31:03;22.14;63.47
70300;HTU21D;57704;51.112;5.878;2023-08-17T00:33:29;22.14;63.44
70300;HTU21D;57704;51.112;5.878;2023-08-17T00:35:55;22.10;63.39
70300;HTU21D;57704;51.112;5.878;2023-08-17T00:38:22;22.02;63.60
70300;HTU21D;57704;51.112;5.878;2023-08-17T00:40:48;21.96;63.81
70300;HTU21D;57704;51.112;5.878;2023-08-17T00:43:14;21.98;63.64
70300;HTU21D;57704;51.112;5.878;2023-08-17T00:45:40;21.91;63.84
70300;HTU21D;57704;51.112;5.878;2023-08-17T00:48:07;21.89;63.98
70300;HTU21D;57704;51.112;5.878;2023-08-17T00:50:35;21.92;63.95
70300;HTU21D;57704;51.112;5.878;2023-08-17T00:53:03;21.88;63.90
70300;HTU21D;57704;51.112;5.878;2023-08-17T00:55:29;21.81;64.09
70300;HTU21D;57704;51.112;5.878;2023-08-17T00:57:56;21.79;64.22
70300;HTU21D;57704;51.112;5.878;2023-08-17T01:00:24;21.78;64.34
70300;HTU21D;57704;51.112;5.878;2023-08-17T01:02:54;21.80;64.34
70300;HTU21D;57704;51.112;5.878;2023-08-17T01:05:21;21.84;64.19
70300;HTU21D;57704;51.112;5.878;2023-08-17T01:07:47;21.87;64.27
70300;HTU21D;57704;51.112;5.878;2023-08-17T01:10:13;21.91;64.29
70300;HTU21D;57704;51.112;5.878;2023-08-17T01:15:27;21.97;63.98
70300;HTU21D;57704;51.112;5.878;2023-08-17T01:20:36;21.91;64.21
70300;HTU21D;57704;51.112;5.878;2023-08-17T01:23:06;21.88;64.25
70300;HTU21D;57704;51.112;5.878;2023-08-17T01:25:33;21.80;64.50
70300;HTU21D;57704;51.112;5.878;2023-08-17T01:28:03;21.76;64.80
70300;HTU21D;57704;51.112;5.878;2023-08-17T01:30:51;21.75;64.72
70300;HTU21D;57704;51.112;5.878;2023-08-17T01:33:29;21.75;64.88
70300;HTU21D;57704;51.112;5.878;2023-08-17T01:36:30;21.67;64.85
70300;HTU21D;57704;51.112;5.878;2023-08-17T01:38:57;21.57;65.30
70300;HTU21D;57704;51.112;5.878;2023-08-17T01:41:26;21.53;65.27
70300;HTU21D;57704;51.112;5.878;2023-08-17T01:43:53;21.51;65.44
70300;HTU21D;57704;51.112;5.878;2023-08-17T01:46:21;21.49;65.45
70300;HTU21D;57704;51.112;5.878;2023-08-17T01:48:47;21.50;65.50
70300;HTU21D;57704;51.112;5.878;2023-08-17T01:51:19;21.53;65.58
70300;HTU21D;57704;51.112;5.878;2023-08-17T01:53:45;21.59;65.40
70300;HTU21D;57704;51.112;5.878;2023-08-17T01:56:11;21.58;65.45
70300;HTU21D;57704;51.112;5.878;2023-08-17T01:58:37;21.57;65.48
70300;HTU21D;57704;51.112;5.878;2023-08-17T02:01:05;21.57;65.43
70300;HTU21D;57704;51.112;5.878;2023-08-17T02:03:31;21.52;65.43
70300;HTU21D;57704;51.112;5.878;2023-08-17T02:05:58;21.43;65.79
70300;HTU21D;57704;51.112;5.878;2023-08-17T02:08:24;21.42;65.98
70300;HTU21D;57704;51.112;5.878;2023-08-17T02:10:51;21.42;66.03
70300;HTU21D;57704;51.112;5.878;2023-08-17T02:13:18;21.35;65.98
70300;HTU21D;57704;51.112;5.878;2023-08-17T02:15:46;21.32;66.00
70300;HTU21D;57704;51.112;5.878;2023-08-17T02:18:12;21.28;66.17
70300;HTU21D;57704;51.112;5.878;2023-08-17T02:20:38;21.23;66.33
70300;HTU21D;57704;51.112;5.878;2023-08-17T02:23:03;21.23;66.44
70300;HTU21D;57704;51.112;5.878;2023-08-17T02:25:29;21.22;66.52
70300;HTU21D;57704;51.112;5.878;2023-08-17T02:28:04;21.23;66.46
70300;HTU21D;57704;51.112;5.878;2023-08-17T02:30:30;21.27;66.49
70300;HTU21D;57704;51.112;5.878;2023-08-17T02:32:58;21.27;66.28
70300;HTU21D;57704;51.112;5.878;2023-08-17T02:35:24;21.28;66.40
70300;HTU21D;57704;51.112;5.878;2023-08-17T02:37:49;21.30;66.24
70300;HTU21D;57704;51.112;5.878;2023-08-17T02:40:15;21.27;66.40
70300;HTU21D;57704;51.112;5.878;2023-08-17T02:42:41;21.25;66.28
70300;HTU21D;57704;51.112;5.878;2023-08-17T02:45:08;21.19;66.50
70300;HTU21D;57704;51.112;5.878;2023-08-17T02:47:35;21.14;66.66
70300;HTU21D;57704;51.112;5.878;2023-08-17T02:50:01;21.14;66.72
70300;HTU21D;57704;51.112;5.878;2023-08-17T02:52:26;21.10;66.81
70300;HTU21D;57704;51.112;5.878;2023-08-17T02:54:52;21.11;66.94
70300;HTU21D;57704;51.112;5.878;2023-08-17T02:57:18;21.13;66.84
70300;HTU21D;57704;51.112;5.878;2023-08-17T02:59:45;21.16;66.98
70300;HTU21D;57704;51.112;5.878;2023-08-17T03:02:11;21.17;66.91
70300;HTU21D;57704;51.112;5.878;2023-08-17T03:04:37;21.19;67.01
70300;HTU21D;57704;51.112;5.878;2023-08-17T03:07:03;21.20;66.95
70300;HTU21D;57704;51.112;5.878;2023-08-17T03:09:28;21.18;66.86
70300;HTU21D;57704;51.112;5.878;2023-08-17T03:11:55;21.11;67.09
70300;HTU21D;57704;51.112;5.878;2023-08-17T03:14:21;21.11;67.18
70300;HTU21D;57704;51.112;5.878;2023-08-17T03:16:47;21.15;67.19
70300;HTU21D;57704;51.112;5.878;2023-08-17T03:19:14;21.15;67.07
70300;HTU21D;57704;51.112;5.878;2023-08-17T03:21:42;21.11;67.17
70300;HTU21D;57704;51.112;5.878;2023-08-17T03:24:08;21.08;67.18
70300;HTU21D;57704;51.112;5.878;2023-08-17T03:26:34;21.07;67.29
70300;HTU21D;57704;51.112;5.878;2023-08-17T03:28:59;21.10;67.33
70300;HTU21D;57704;51.112;5.878;2023-08-17T03:31:26;21.10;67.23
70300;HTU21D;57704;51.112;5.878;2023-08-17T03:33:52;21.15;67.13
70300;HTU21D;57704;51.112;5.878;2023-08-17T03:36:18;21.16;67.02
70300;HTU21D;57704;51.112;5.878;2023-08-17T03:38:44;21.10;67.11
70300;HTU21D;57704;51.112;5.878;2023-08-17T03:41:10;21.08;67.21
70300;HTU21D;57704;51.112;5.878;2023-08-17T03:43:36;21.02;67.26
70300;HTU21D;57704;51.112;5.878;2023-08-17T03:46:04;21.01;67.31
70300;HTU21D;57704;51.112;5.878;2023-08-17T03:48:30;20.93;67.38
70300;HTU21D;57704;51.112;5.878;2023-08-17T03:50:55;20.90;67.42
70300;HTU21D;57704;51.112;5.878;2023-08-17T03:53:21;20.88;67.48
70300;HTU21D;57704;51.112;5.878;2023-08-17T03:55:48;20.83;67.48
70300;HTU21D;57704;51.112;5.878;2023-08-17T03:58:15;20.80;67.68
70300;HTU21D;57704;51.112;5.878;2023-08-17T04:00:40;20.81;67.54
70300;HTU21D;57704;51.112;5.878;2023-08-17T04:03:07;20.74;67.71
70300;HTU21D;57704;51.112;5.878;2023-08-17T04:05:33;20.70;67.89
70300;HTU21D;57704;51.112;5.878;2023-08-17T04:08:00;20.70;67.91
70300;HTU21D;57704;51.112;5.878;2023-08-17T04:10:31;20.69;67.87
70300;HTU21D;57704;51.112;5.878;2023-08-17T04:12:57;20.73;67.66
70300;HTU21D;57704;51.112;5.878;2023-08-17T04:15:23;20.75;67.58
70300;HTU21D;57704;51.112;5.878;2023-08-17T04:17:48;20.69;67.69
70300;HTU21D;57704;51.112;5.878;2023-08-17T04:20:14;20.65;67.81
70300;HTU21D;57704;51.112;5.878;2023-08-17T04:22:40;20.63;67.88
70300;HTU21D;57704;51.112;5.878;2023-08-17T04:25:06;20.60;67.82
70300;HTU21D;57704;51.112;5.878;2023-08-17T04:27:33;20.56;67.94
70300;HTU21D;57704;51.112;5.878;2023-08-17T04:30:00;20.55;67.97
70300;HTU21D;57704;51.112;5.878;2023-08-17T04:32:30;20.57;67.72
70300;HTU21D;57704;51.112;5.878;2023-08-17T04:34:55;20.54;67.78
70300;HTU21D;57704;51.112;5.878;2023-08-17T04:37:21;20.49;67.92
70300;HTU21D;57704;51.112;5.878;2023-08-17T04:39:47;20.48;67.96
70300;HTU21D;57704;51.112;5.878;2023-08-17T04:42:18;20.54;68.02
70300;HTU21D;57704;51.112;5.878;2023-08-17T04:44:46;20.64;67.72
70300;HTU21D;57704;51.112;5.878;2023-08-17T04:47:11;20.68;67.59
70300;HTU21D;57704;51.112;5.878;2023-08-17T04:49:38;20.75;67.46
70300;HTU21D;57704;51.112;5.878;2023-08-17T04:52:04;20.77;67.28
70300;HTU21D;57704;51.112;5.878;2023-08-17T04:54:30;20.76;67.44
70300;HTU21D;57704;51.112;5.878;2023-08-17T04:56:56;20.74;67.33
70300;HTU21D;57704;51.112;5.878;2023-08-17T04:59:22;20.69;67.52
70300;HTU21D;57704;51.112;5.878;2023-08-17T05:01:48;20.62;67.61
70300;HTU21D;57704;51.112;5.878;2023-08-17T05:04:14;20.54;67.83
70300;HTU21D;57704;51.112;5.878;2023-08-17T05:06:39;20.48;68.12
70300;HTU21D;57704;51.112;5.878;2023-08-17T05:09:05;20.50;68.07
70300;HTU21D;57704;51.112;5.878;2023-08-17T05:11:33;20.56;67.94
70300;HTU21D;57704;51.112;5.878;2023-08-17T05:13:59;20.61;67.71
70300;HTU21D;57704;51.112;5.878;2023-08-17T05:16:24;20.60;67.87
70300;HTU21D;57704;51.112;5.878;2023-08-17T05:18:50;20.62;67.77
70300;HTU21D;57704;51.112;5.878;2023-08-17T05:21:16;20.58;67.81
70300;HTU21D;57704;51.112;5.878;2023-08-17T05:23:42;20.54;67.98
70300;HTU21D;57704;51.112;5.878;2023-08-17T05:26:08;20.58;67.94
70300;HTU21D;57704;51.112;5.878;2023-08-17T05:28:34;20.53;68.04
70300;HTU21D;57704;51.112;5.878;2023-08-17T05:31:06;20.53;68.04
70300;HTU21D;57704;51.112;5.878;2023-08-17T05:33:34;20.53;68.07
70300;HTU21D;57704;51.112;5.878;2023-08-17T05:36:00;20.50;68.12
70300;HTU21D;57704;51.112;5.878;2023-08-17T05:38:26;20.45;68.40
70300;HTU21D;57704;51.112;5.878;2023-08-17T05:40:59;20.53;68.38
70300;HTU21D;57704;51.112;5.878;2023-08-17T05:43:25;20.59;68.12
70300;HTU21D;57704;51.112;5.878;2023-08-17T05:45:51;20.61;68.11
70300;HTU21D;57704;51.112;5.878;2023-08-17T05:48:19;20.60;67.94
70300;HTU21D;57704;51.112;5.878;2023-08-17T05:50:47;20.56;67.94
70300;HTU21D;57704;51.112;5.878;2023-08-17T05:53:13;20.54;68.01
70300;HTU21D;57704;51.112;5.878;2023-08-17T05:55:38;20.54;67.98
70300;HTU21D;57704;51.112;5.878;2023-08-17T05:58:04;20.53;68.10
70300;HTU21D;57704;51.112;5.878;2023-08-17T06:00:30;20.55;68.11
70300;HTU21D;57704;51.112;5.878;2023-08-17T06:02:56;20.59;68.01
70300;HTU21D;57704;51.112;5.878;2023-08-17T06:05:27;20.61;68.12
70300;HTU21D;57704;51.112;5.878;2023-08-17T06:07:57;20.70;67.91
70300;HTU21D;57704;51.112;5.878;2023-08-17T06:10:23;20.73;67.65
70300;HTU21D;57704;51.112;5.878;2023-08-17T06:12:54;20.62;67.70
70300;HTU21D;57704;51.112;5.878;2023-08-17T06:15:20;20.55;68.02
70300;HTU21D;57704;51.112;5.878;2023-08-17T06:17:46;20.49;68.20
70300;HTU21D;57704;51.112;5.878;2023-08-17T06:20:12;20.47;68.27
70300;HTU21D;57704;51.112;5.878;2023-08-17T06:22:39;20.44;68.30
70300;HTU21D;57704;51.112;5.878;2023-08-17T06:25:05;20.40;68.54
70300;HTU21D;57704;51.112;5.878;2023-08-17T06:27:32;20.49;68.39
70300;HTU21D;57704;51.112;5.878;2023-08-17T06:29:59;20.49;68.33
70300;HTU21D;57704;51.112;5.878;2023-08-17T06:32:25;20.51;68.24
70300;HTU21D;57704;51.112;5.878;2023-08-17T06:34:50;20.62;68.21
70300;HTU21D;57704;51.112;5.878;2023-08-17T06:37:16;20.73;68.00
70300;HTU21D;57704;51.112;5.878;2023-08-17T06:39:42;20.83;67.76
70300;HTU21D;57704;51.112;5.878;2023-08-17T06:42:08;20.90;67.55
70300;HTU21D;57704;51.112;5.878;2023-08-17T06:44:33;20.98;67.59
70300;HTU21D;57704;51.112;5.878;2023-08-17T06:46:59;21.07;67.38
70300;HTU21D;57704;51.112;5.878;2023-08-17T06:49:26;21.19;67.14
70300;HTU21D;57704;51.112;5.878;2023-08-17T06:51:51;21.30;66.82
70300;HTU21D;57704;51.112;5.878;2023-08-17T06:54:17;21.39;66.68
70300;HTU21D;57704;51.112;5.878;2023-08-17T06:56:43;21.42;66.43
70300;HTU21D;57704;51.112;5.878;2023-08-17T06:59:09;21.40;66.38
70300;HTU21D;57704;51.112;5.878;2023-08-17T07:01:34;21.39;66.43
70300;HTU21D;57704;51.112;5.878;2023-08-17T07:04:00;21.39;66.48
70300;HTU21D;57704;51.112;5.878;2023-08-17T07:06:26;21.38;66.62
70300;HTU21D;57704;51.112;5.878;2023-08-17T07:08:52;21.35;66.49
70300;HTU21D;57704;51.112;5.878;2023-08-17T07:11:21;21.29;66.72
70300;HTU21D;57704;51.112;5.878;2023-08-17T07:13:46;21.24;66.84
70300;HTU21D;57704;51.112;5.878;2023-08-17T07:16:13;21.27;66.88
70300;HTU21D;57704;51.112;5.878;2023-08-17T07:18:39;21.31;66.94
70300;HTU21D;57704;51.112;5.878;2023-08-17T07:21:05;21.40;66.64
70300;HTU21D;57704;51.112;5.878;2023-08-17T07:23:31;21.45;66.45
70300;HTU21D;57704;51.112;5.878;2023-08-17T07:25:57;21.34;66.54
70300;HTU21D;57704;51.112;5.878;2023-08-17T07:28:23;21.29;66.79
70300;HTU21D;57704;51.112;5.878;2023-08-17T07:30:49;21.35;66.94
70300;HTU21D;57704;51.112;5.878;2023-08-17T07:33:15;21.44;66.72
70300;HTU21D;57704;51.112;5.878;2023-08-17T07:35:41;21.57;66.40
70300;HTU21D;57704;51.112;5.878;2023-08-17T07:38:07;21.63;66.17
70300;HTU21D;57704;51.112;5.878;2023-08-17T07:40:32;21.66;66.19
70300;HTU21D;57704;51.112;5.878;2023-08-17T07:42:58;21.69;65.95
70300;HTU21D;57704;51.112;5.878;2023-08-17T07:45:24;21.66;66.10
70300;HTU21D;57704;51.112;5.878;2023-08-17T07:47:50;21.68;66.12
70300;HTU21D;57704;51.112;5.878;2023-08-17T07:50:15;21.68;66.04
70300;HTU21D;57704;51.112;5.878;2023-08-17T07:52:41;21.69;66.15
70300;HTU21D;57704;51.112;5.878;2023-08-17T07:55:07;21.70;66.05
70300;HTU21D;57704;51.112;5.878;2023-08-17T07:57:33;21.69;66.04
70300;HTU21D;57704;51.112;5.878;2023-08-17T07:59:59;21.67;65.88
70300;HTU21D;57704;51.112;5.878;2023-08-17T08:02:25;21.60;66.13
70300;HTU21D;57704;51.112;5.878;2023-08-17T08:04:50;21.62;66.14
70300;HTU21D;57704;51.112;5.878;2023-08-17T08:07:16;21.60;66.40
70300;HTU21D;57704;51.112;5.878;2023-08-17T08:09:42;21.63;66.32
70300;HTU21D;57704;51.112;5.878;2023-08-17T08:12:08;21.62;66.24
70300;HTU21D;57704;51.112;5.878;2023-08-17T08:14:35;21.63;66.44
70300;HTU21D;57704;51.112;5.878;2023-08-17T08:17:01;21.74;66.20
70300;HTU21D;57704;51.112;5.878;2023-08-17T08:19:26;21.79;65.91
70300;HTU21D;57704;51.112;5.878;2023-08-17T08:21:52;21.79;65.95
70300;HTU21D;57704;51.112;5.878;2023-08-17T08:24:18;21.79;66.00
70300;HTU21D;57704;51.112;5.878;2023-08-17T08:26:44;21.80;65.78
70300;HTU21D;57704;51.112;5.878;2023-08-17T08:29:09;21.73;66.17
70300;HTU21D;57704;51.112;5.878;2023-08-17T08:31:35;21.72;66.39
70300;HTU21D;57704;51.112;5.878;2023-08-17T08:34:01;21.78;66.13
70300;HTU21D;57704;51.112;5.878;2023-08-17T08:36:27;21.74;66.11
70300;HTU21D;57704;51.112;5.878;2023-08-17T08:38:52;21.75;66.20
70300;HTU21D;57704;51.112;5.878;2023-08-17T08:41:19;21.75;66.27
70300;HTU21D;57704;51.112;5.878;2023-08-17T08:43:45;21.79;66.20
70300;HTU21D;57704;51.112;5.878;2023-08-17T08:46:11;21.90;66.16
70300;HTU21D;57704;51.112;5.878;2023-08-17T08:48:39;22.02;65.76
70300;HTU21D;57704;51.112;5.878;2023-08-17T08:51:08;22.06;65.69
70300;HTU21D;57704;51.112;5.878;2023-08-17T08:53:44;22.09;65.58
70300;HTU21D;57704;51.112;5.878;2023-08-17T08:56:16;22.14;65.61
70300;HTU21D;57704;51.112;5.878;2023-08-17T08:58:46;22.23;65.33
70300;HTU21D;57704;51.112;5.878;2023-08-17T09:01:13;22.26;65.40
70300;HTU21D;57704;51.112;5.878;2023-08-17T09:03:41;22.38;64.96
70300;HTU21D;57704;51.112;5.878;2023-08-17T09:06:09;22.37;64.99
70300;HTU21D;57704;51.112;5.878;2023-08-17T09:08:36;22.40;64.92
70300;HTU21D;57704;51.112;5.878;2023-08-17T09:11:02;22.34;65.06
70300;HTU21D;57704;51.112;5.878;2023-08-17T09:13:28;22.33;65.06
70300;HTU21D;57704;51.112;5.878;2023-08-17T09:15:54;22.27;65.27
70300;HTU21D;57704;51.112;5.878;2023-08-17T09:18:20;22.28;65.27
70300;HTU21D;57704;51.112;5.878;2023-08-17T09:20:47;22.33;65.40
70300;HTU21D;57704;51.112;5.878;2023-08-17T09:23:18;22.43;65.21
70300;HTU21D;57704;51.112;5.878;2023-08-17T09:25:49;22.60;64.82
70300;HTU21D;57704;51.112;5.878;2023-08-17T09:28:18;22.69;64.41
70300;HTU21D;57704;51.112;5.878;2023-08-17T09:30:59;22.62;64.27
70300;HTU21D;57704;51.112;5.878;2023-08-17T09:33:27;22.51;64.57
70300;HTU21D;57704;51.112;5.878;2023-08-17T09:35:54;22.48;64.86
70300;HTU21D;57704;51.112;5.878;2023-08-17T09:38:22;22.55;65.07
70300;HTU21D;57704;51.112;5.878;2023-08-17T09:40:49;22.73;64.46
70300;HTU21D;57704;51.112;5.878;2023-08-17T09:43:16;22.75;64.11
70300;HTU21D;57704;51.112;5.878;2023-08-17T09:45:43;22.71;64.47
70300;HTU21D;57704;51.112;5.878;2023-08-17T09:48:17;22.87;64.19
70300;HTU21D;57704;51.112;5.878;2023-08-17T09:50:44;22.93;63.76
70300;HTU21D;57704;51.112;5.878;2023-08-17T09:53:15;22.92;64.03
70300;HTU21D;57704;51.112;5.878;2023-08-17T09:55:42;22.98;63.88
70300;HTU21D;57704;51.112;5.878;2023-08-17T09:58:11;23.10;63.57
70300;HTU21D;57704;51.112;5.878;2023-08-17T10:00:47;23.17;63.29
70300;HTU21D;57704;51.112;5.878;2023-08-17T10:03:16;23.24;63.24
70300;HTU21D;57704;51.112;5.878;2023-08-17T10:05:44;23.27;63.10
70300;HTU21D;57704;51.112;5.878;2023-08-17T10:08:11;23.29;63.07
70300;HTU21D;57704;51.112;5.878;2023-08-17T10:10:44;23.28;62.95
70300;HTU21D;57704;51.112;5.878;2023-08-17T10:13:16;23.22;63.27
70300;HTU21D;57704;51.112;5.878;2023-08-17T10:15:57;23.16;63.37
70300;HTU21D;57704;51.112;5.878;2023-08-17T10:18:58;23.07;63.47
70300;HTU21D;57704;51.112;5.878;2023-08-17T10:24:26;23.15;63.27
70300;HTU21D;57704;51.112;5.878;2023-08-17T10:26:54;23.11;63.35
70300;HTU21D;57704;51.112;5.878;2023-08-17T10:29:23;23.12;63.46
70300;HTU21D;57704;51.112;5.878;2023-08-17T10:31:49;23.20;63.43
70300;HTU21D;57704;51.112;5.878;2023-08-17T10:34:16;23.30;62.97
70300;HTU21D;57704;51.112;5.878;2023-08-17T10:36:42;23.38;62.94
70300;HTU21D;57704;51.112;5.878;2023-08-17T10:39:24;23.42;62.72
70300;HTU21D;57704;51.112;5.878;2023-08-17T10:41:51;23.40;62.79
70300;HTU21D;57704;51.112;5.878;2023-08-17T10:44:37;23.30;62.76
70300;HTU21D;57704;51.112;5.878;2023-08-17T10:49:44;22.93;63.66
70300;HTU21D;57704;51.112;5.878;2023-08-17T10:52:11;22.87;63.93
70300;HTU21D;57704;51.112;5.878;2023-08-17T10:54:41;22.88;63.96
70300;HTU21D;57704;51.112;5.878;2023-08-17T11:05:45;23.14;63.15
70300;HTU21D;57704;51.112;5.878;2023-08-17T11:08:32;23.07;63.61
70300;HTU21D;57704;51.112;5.878;2023-08-17T11:13:34;23.13;63.38
70300;HTU21D;57704;51.112;5.878;2023-08-17T11:16:02;23.11;63.53
70300;HTU21D;57704;51.112;5.878;2023-08-17T11:18:28;23.12;63.53
70300;HTU21D;57704;51.112;5.878;2023-08-17T11:20:55;23.09;63.53
70300;HTU21D;57704;51.112;5.878;2023-08-17T11:23:23;23.07;63.75
70300;HTU21D;57704;51.112;5.878;2023-08-17T11:25:49;23.08;63.69
70300;HTU21D;57704;51.112;5.878;2023-08-17T11:28:17;23.11;63.54
70300;HTU21D;57704;51.112;5.878;2023-08-17T11:30:43;23.07;63.71
70300;HTU21D;57704;51.112;5.878;2023-08-17T11:33:10;23.11;63.60
70300;HTU21D;57704;51.112;5.878;2023-08-17T11:35:36;23.09;63.58
70300;HTU21D;57704;51.112;5.878;2023-08-17T11:38:03;23.10;63.85
70300;HTU21D;57704;51.112;5.878;2023-08-17T11:40:29;23.14;63.71
70300;HTU21D;57704;51.112;5.878;2023-08-17T11:42:55;23.14;63.56
70300;HTU21D;57704;51.112;5.878;2023-08-17T11:45:21;23.10;63.70
70300;HTU21D;57704;51.112;5.878;2023-08-17T11:47:49;23.11;63.96
70300;HTU21D;57704;51.112;5.878;2023-08-17T11:50:15;23.25;63.69
70300;HTU21D;57704;51.112;5.878;2023-08-17T11:52:41;23.34;63.56
70300;HTU21D;57704;51.112;5.878;2023-08-17T11:55:08;23.43;63.41
70300;HTU21D;57704;51.112;5.878;2023-08-17T11:57:37;23.53;63.28
70300;HTU21D;57704;51.112;5.878;2023-08-17T12:00:04;23.59;62.83
70300;HTU21D;57704;51.112;5.878;2023-08-17T12:02:38;23.43;63.10
70300;HTU21D;57704;51.112;5.878;2023-08-17T12:05:08;23.28;63.34
70300;HTU21D;57704;51.112;5.878;2023-08-17T12:07:35;23.02;64.02
70300;HTU21D;57704;51.112;5.878;2023-08-17T12:10:04;22.79;64.66
70300;HTU21D;57704;51.112;5.878;2023-08-17T12:12:36;22.66;65.11
70300;HTU21D;57704;51.112;5.878;2023-08-17T12:15:03;22.66;65.49
70300;HTU21D;57704;51.112;5.878;2023-08-17T12:17:29;22.67;65.21
70300;HTU21D;57704;51.112;5.878;2023-08-17T12:19:55;22.64;65.43
70300;HTU21D;57704;51.112;5.878;2023-08-17T12:22:24;22.62;65.49
70300;HTU21D;57704;51.112;5.878;2023-08-17T12:24:52;22.68;65.53
70300;HTU21D;57704;51.112;5.878;2023-08-17T12:27:18;22.76;65.62
70300;HTU21D;57704;51.112;5.878;2023-08-17T12:29:51;22.94;65.22
70300;HTU21D;57704;51.112;5.878;2023-08-17T12:32:19;23.09;64.61
70300;HTU21D;57704;51.112;5.878;2023-08-17T12:34:47;23.18;64.52
70300;HTU21D;57704;51.112;5.878;2023-08-17T12:37:19;23.30;64.44
70300;HTU21D;57704;51.112;5.878;2023-08-17T12:39:48;23.46;64.15
70300;HTU21D;57704;51.112;5.878;2023-08-17T12:42:14;23.50;63.66
70300;HTU21D;57704;51.112;5.878;2023-08-17T12:44:43;23.44;63.81
70300;HTU21D;57704;51.112;5.878;2023-08-17T12:47:09;23.42;64.04
70300;HTU21D;57704;51.112;5.878;2023-08-17T12:49:35;23.47;63.95
70300;HTU21D;57704;51.112;5.878;2023-08-17T12:52:01;23.50;64.07
70300;HTU21D;57704;51.112;5.878;2023-08-17T12:54:27;23.54;63.91
70300;HTU21D;57704;51.112;5.878;2023-08-17T12:56:53;23.56;63.92
70300;HTU21D;57704;51.112;5.878;2023-08-17T12:59:19;23.55;63.79
70300;HTU21D;57704;51.112;5.878;2023-08-17T13:01:45;23.49;63.92
70300;HTU21D;57704;51.112;5.878;2023-08-17T13:04:13;23.52;63.77
70300;HTU21D;57704;51.112;5.878;2023-08-17T13:06:41;23.44;64.01
70300;HTU21D;57704;51.112;5.878;2023-08-17T13:09:06;23.41;64.18
70300;HTU21D;57704;51.112;5.878;2023-08-17T13:11:32;23.47;64.21
70300;HTU21D;57704;51.112;5.878;2023-08-17T13:13:58;23.52;63.92
70300;HTU21D;57704;51.112;5.878;2023-08-17T13:16:24;23.53;63.99
70300;HTU21D;57704;51.112;5.878;2023-08-17T13:18:49;23.68;63.92
70300;HTU21D;57704;51.112;5.878;2023-08-17T13:21:15;23.95;63.21
70300;HTU21D;57704;51.112;5.878;2023-08-17T13:23:43;24.13;62.76
70300;HTU21D;57704;51.112;5.878;2023-08-17T13:26:10;24.24;62.27
70300;HTU21D;57704;51.112;5.878;2023-08-17T13:28:35;24.20;62.21
70300;HTU21D;57704;51.112;5.878;2023-08-17T13:31:01;24.19;62.56
70300;HTU21D;57704;51.112;5.878;2023-08-17T13:33:27;24.08;62.57
70300;HTU21D;57704;51.112;5.878;2023-08-17T13:35:54;23.95;62.90
70300;HTU21D;57704;51.112;5.878;2023-08-17T13:38:20;23.85;63.06
70300;HTU21D;57704;51.112;5.878;2023-08-17T13:40:48;23.69;63.40
70300;HTU21D;57704;51.112;5.878;2023-08-17T13:43:14;23.54;63.98
70300;HTU21D;57704;51.112;5.878;2023-08-17T13:45:40;23.53;64.07
70300;HTU21D;57704;51.112;5.878;2023-08-17T13:48:07;23.60;64.06
70300;HTU21D;57704;51.112;5.878;2023-08-17T13:50:38;23.62;64.01
70300;HTU21D;57704;51.112;5.878;2023-08-17T13:53:04;23.65;63.90
70300;HTU21D;57704;51.112;5.878;2023-08-17T13:55:30;23.66;63.82
70300;HTU21D;57704;51.112;5.878;2023-08-17T13:57:59;23.68;63.93
70300;HTU21D;57704;51.112;5.878;2023-08-17T14:00:28;23.69;63.98
70300;HTU21D;57704;51.112;5.878;2023-08-17T14:02:54;23.82;63.71
70300;HTU21D;57704;51.112;5.878;2023-08-17T14:05:20;23.98;63.47
70300;HTU21D;57704;51.112;5.878;2023-08-17T14:07:47;24.17;62.95
70300;HTU21D;57704;51.112;5.878;2023-08-17T14:10:14;24.28;62.74
70300;HTU21D;57704;51.112;5.878;2023-08-17T14:12:40;24.46;62.52
70300;HTU21D;57704;51.112;5.878;2023-08-17T14:15:08;24.71;61.73
70300;HTU21D;57704;51.112;5.878;2023-08-17T14:17:34;24.80;61.15
70300;HTU21D;57704;51.112;5.878;2023-08-17T14:20:00;24.77;61.28
70300;HTU21D;57704;51.112;5.878;2023-08-17T14:22:26;24.76;61.33
70300;HTU21D;57704;51.112;5.878;2023-08-17T14:24:52;24.89;61.28
70300;HTU21D;57704;51.112;5.878;2023-08-17T14:27:17;24.84;61.18
70300;HTU21D;57704;51.112;5.878;2023-08-17T14:29:43;24.73;61.61
70300;HTU21D;57704;51.112;5.878;2023-08-17T14:32:12;24.79;61.29
70300;HTU21D;57704;51.112;5.878;2023-08-17T14:34:38;24.78;61.45
70300;HTU21D;57704;51.112;5.878;2023-08-17T14:37:04;24.78;61.45
70300;HTU21D;57704;51.112;5.878;2023-08-17T14:39:29;24.83;61.21
70300;HTU21D;57704;51.112;5.878;2023-08-17T14:41:55;24.89;61.26
70300;HTU21D;57704;51.112;5.878;2023-08-17T14:44:21;24.99;61.14
70300;HTU21D;57704;51.112;5.878;2023-08-17T14:46:47;25.07;60.79
70300;HTU21D;57704;51.112;5.878;2023-08-17T14:49:13;25.05;61.12
70300;HTU21D;57704;51.112;5.878;2023-08-17T14:51:40;25.09;60.89
70300;HTU21D;57704;51.112;5.878;2023-08-17T14:54:07;25.06;60.87
70300;HTU21D;57704;51.112;5.878;2023-08-17T14:56:33;25.01;60.95
70300;HTU21D;57704;51.112;5.878;2023-08-17T14:58:59;25.03;61.11
70300;HTU21D;57704;51.112;5.878;2023-08-17T15:01:25;25.06;60.85
70300;HTU21D;57704;51.112;5.878;2023-08-17T15:03:51;25.09;60.84
70300;HTU21D;57704;51.112;5.878;2023-08-17T15:06:17;25.07;60.97
70300;HTU21D;57704;51.112;5.878;2023-08-17T15:08:43;25.09;60.98
70300;HTU21D;57704;51.112;5.878;2023-08-17T15:11:08;25.09;60.79
70300;HTU21D;57704;51.112;5.878;2023-08-17T15:13:35;25.03;61.26
70300;HTU21D;57704;51.112;5.878;2023-08-17T15:16:00;25.08;61.12
70300;HTU21D;57704;51.112;5.878;2023-08-17T15:18:26;25.09;61.15
70300;HTU21D;57704;51.112;5.878;2023-08-17T15:20:52;25.13;60.82
70300;HTU21D;57704;51.112;5.878;2023-08-17T15:23:18;25.10;60.94
70300;HTU21D;57704;51.112;5.878;2023-08-17T15:25:44;25.03;60.97
70300;HTU21D;57704;51.112;5.878;2023-08-17T15:28:10;24.97;61.30
70300;HTU21D;57704;51.112;5.878;2023-08-17T15:30:35;24.95;61.44
70300;HTU21D;57704;51.112;5.878;2023-08-17T15:33:01;24.88;61.27
70300;HTU21D;57704;51.112;5.878;2023-08-17T15:35:27;24.85;61.60
70300;HTU21D;57704;51.112;5.878;2023-08-17T15:37:52;24.97;61.49